Ilyas Efendiyev — 9HES8 — position and weather

sailwx.info

Track history (hours):
 
Tides and Currents Weather Stations Pressure Air Temp Water Temp Dewpoint Dewpoint Depression Visibility Wind Speed Wind Dir Waves Ship Positions

Ilyas Efendiyev

Last reported at 2017-Jan-18 06:16 UTC. Time now 2017-Jan-18 08:06 UTC.
Position N 46°21' E 031°01'.

Length 140 m; draft 4.6 m.

Type: Cargo ship. MMSI: 215901000.

Date/timePositionNaut miles runAvg speedWind from/ knotsBaromVisibWave heightAir tempDewpointWater temp
2017-Jan-18 06:16N 46°21' E 031°01'0 0.0
2017-Jan-18 05:20N 46°21' E 031°01'0 0.0
2017-Jan-18 04:31N 46°21' E 031°01'0 0.0
2017-Jan-18 03:27N 46°21' E 031°01'1 1.3
2017-Jan-18 02:33N 46°22' E 030°59'7 7.0
2017-Jan-18 01:33N 46°28' E 030°55'7 7.2
2017-Jan-18 00:33N 46°34' E 031°02'9 8.5
2017-Jan-17 23:33N 46°35' E 031°14'26 8.0
2017-Jan-17 20:22N 46°35' E 031°51'3 3.4
2017-Jan-17 19:33N 46°34' E 031°55'0 0.0
2017-Jan-17 18:33N 46°34' E 031°55'0 0.0
2017-Jan-17 17:33N 46°34' E 031°55'0 0.0
2017-Jan-17 16:33N 46°34' E 031°55'0 0.0
2017-Jan-17 15:33N 46°34' E 031°55'0 0.5
2017-Jan-17 14:33N 46°34' E 031°56'  
2017-Jan-12 12:33N 46°33' E 032°01'6 5.9
2017-Jan-12 11:31N 46°35' E 031°53'1 1.2
2017-Jan-12 10:32N 46°35' E 031°51'  
Track history (hours):
 
Tides and Currents Weather Stations Pressure Air Temp Water Temp Dewpoint Dewpoint Depression Visibility Wind Speed Wind Dir Waves Ship Positions

Ilyas Efendiyev

Last reported at 2017-Jan-18 06:16 UTC. Time now 2017-Jan-18 08:06 UTC.
Position N 46°21' E 031°01'.

Length 140 m; draft 4.6 m.

Type: Cargo ship. MMSI: 215901000.

Date/timePositionNaut miles runAvg speedWind from/ knotsBaromVisibWave heightAir tempDewpointWater temp
2017-Jan-18 06:16N 46°21' E 031°01'0 0.0
2017-Jan-18 05:20N 46°21' E 031°01'0 0.0
2017-Jan-18 04:31N 46°21' E 031°01'0 0.0
2017-Jan-18 03:27N 46°21' E 031°01'1 1.3
2017-Jan-18 02:33N 46°22' E 030°59'7 7.0
2017-Jan-18 01:33N 46°28' E 030°55'7 7.2
2017-Jan-18 00:33N 46°34' E 031°02'9 8.5
2017-Jan-17 23:33N 46°35' E 031°14'26 8.0
2017-Jan-17 20:22N 46°35' E 031°51'3 3.4
2017-Jan-17 19:33N 46°34' E 031°55'0 0.0
2017-Jan-17 18:33N 46°34' E 031°55'0 0.0
2017-Jan-17 17:33N 46°34' E 031°55'0 0.0
2017-Jan-17 16:33N 46°34' E 031°55'0 0.0
2017-Jan-17 15:33N 46°34' E 031°55'0 0.5
2017-Jan-17 14:33N 46°34' E 031°56'  
2017-Jan-12 12:33N 46°33' E 032°01'6 5.9
2017-Jan-12 11:31N 46°35' E 031°53'1 1.2
2017-Jan-12 10:32N 46°35' E 031°51'  

Dump ship's entire track history